createdAt,value
2019-05-15T00:04:02.514Z,48.30
2019-05-15T00:08:09.608Z,44.90
2019-05-15T00:12:18.763Z,47.83
2019-05-15T00:16:24.681Z,39.43
2019-05-15T00:20:30.440Z,42.53
2019-05-15T00:24:39.612Z,28.37
2019-05-15T00:28:45.336Z,32.97
2019-05-15T00:32:55.474Z,33.83
2019-05-15T00:37:02.130Z,46.53
2019-05-15T00:41:09.650Z,46.40
2019-05-15T00:45:34.811Z,46.23
2019-05-15T00:49:41.097Z,41.83
2019-05-15T00:53:48.311Z,39.53
2019-05-15T00:57:58.962Z,45.50
2019-05-15T01:02:05.309Z,49.07
2019-05-15T01:06:13.715Z,43.23
2019-05-15T01:10:19.373Z,47.27
2019-05-15T01:14:29.308Z,45.50
2019-05-15T01:18:55.213Z,32.83
2019-05-15T01:23:00.854Z,50.90
2019-05-15T01:27:08.768Z,42.93
2019-05-15T01:31:16.241Z,33.23
2019-05-15T01:35:22.308Z,45.07
2019-05-15T01:43:38.256Z,47.60
2019-05-15T01:47:44.780Z,45.07
2019-05-15T01:51:50.210Z,43.77
2019-05-15T01:55:58.756Z,45.87
2019-05-15T02:00:05.316Z,49.60
2019-05-15T02:04:14.218Z,48.83
2019-05-15T02:08:20.484Z,26.90
2019-05-15T02:12:28.602Z,52.93
2019-05-15T02:16:36.020Z,46.30
2019-05-15T02:20:42.523Z,49.63
2019-05-15T02:24:48.848Z,43.33
2019-05-15T02:28:54.819Z,47.90
2019-05-15T02:33:00.863Z,48.47
2019-05-15T02:37:08.938Z,42.40
2019-05-15T02:41:19.286Z,42.20
2019-05-15T02:45:23.688Z,36.60
2019-05-15T02:49:30.397Z,44.20
2019-05-15T02:53:35.548Z,31.77
2019-05-15T02:57:40.956Z,40.93
2019-05-15T03:01:49.388Z,37.40
2019-05-15T03:05:54.660Z,25.60
2019-05-15T03:10:00.541Z,40.63
2019-05-15T03:14:09.079Z,38.80
2019-05-15T03:18:14.929Z,39.83
2019-05-15T03:22:20.572Z,32.93
2019-05-15T03:26:29.618Z,42.47
2019-05-15T03:31:02.626Z,36.63
2019-05-15T03:34:47.593Z,43.03
2019-05-15T03:38:49.981Z,21.97
2019-05-15T03:42:59.279Z,30.40
2019-05-15T03:47:04.868Z,26.63
2019-05-15T03:51:10.827Z,35.67
2019-05-15T03:55:18.659Z,42.83
2019-05-15T03:59:29.162Z,28.90
2019-05-15T04:03:33.878Z,35.63
2019-05-15T04:07:41.292Z,37.50
2019-05-15T04:11:49.747Z,39.23
2019-05-15T04:15:59.235Z,35.23
2019-05-15T04:20:04.402Z,29.90
2019-05-15T04:24:10.183Z,39.30
2019-05-15T04:28:20.289Z,30.37
2019-05-15T04:32:28.870Z,40.67
2019-05-15T04:36:35.106Z,27.30
2019-05-15T04:40:40.673Z,31.27
2019-05-15T04:44:49.489Z,42.80
2019-05-15T04:49:19.070Z,45.20
2019-05-15T04:53:23.557Z,31.77
2019-05-15T04:57:33.812Z,43.90
2019-05-15T05:01:40.143Z,37.73
2019-05-15T05:05:49.800Z,33.83
2019-05-15T05:10:15.791Z,34.90
2019-05-15T05:14:21.956Z,28.77
2019-05-15T05:18:29.713Z,39.10
2019-05-15T05:22:39.352Z,36.77
2019-05-15T05:26:48.860Z,33.37
2019-05-15T05:30:54.337Z,37.27
2019-05-15T05:35:00.588Z,26.83
2019-05-15T05:39:11.451Z,30.13
2019-05-15T05:43:18.402Z,11.33
2019-05-15T05:47:24.455Z,30.37
2019-05-15T05:51:29.916Z,24.97
2019-05-15T05:55:38.492Z,32.67
2019-05-15T05:59:45.128Z,33.57
2019-05-15T06:03:50.705Z,29.63
2019-05-15T06:07:58.156Z,31.50
2019-05-15T06:12:28.163Z,28.13
2019-05-15T06:16:34.501Z,35.90
2019-05-15T06:20:40.873Z,30.23
2019-05-15T06:24:48.519Z,31.23
2019-05-15T06:28:58.417Z,26.33
2019-05-15T06:33:12.536Z,28.70
2019-05-15T06:37:12.780Z,33.20
2019-05-15T06:41:18.414Z,27.33
2019-05-15T06:45:28.489Z,32.03
2019-05-15T06:49:38.160Z,24.37
2019-05-15T06:53:45.944Z,26.27
2019-05-15T06:57:51.960Z,27.47
2019-05-15T07:01:59.440Z,29.13
2019-05-15T07:06:25.172Z,12.67
2019-05-15T07:10:30.869Z,34.03
2019-05-15T07:14:37.938Z,30.93
2019-05-15T07:18:44.060Z,29.80
2019-05-15T07:22:53.124Z,27.60
2019-05-15T07:26:59.280Z,28.07
2019-05-15T07:31:05.216Z,31.37
2019-05-15T07:35:15.201Z,30.23
2019-05-15T07:39:20.898Z,31.73
2019-05-15T07:43:28.353Z,28.47
2019-05-15T07:47:34.922Z,25.97
2019-05-15T07:51:48.869Z,26.90
2019-05-15T07:56:01.319Z,24.20
2019-05-15T08:00:10.013Z,29.70
2019-05-15T08:04:26.126Z,28.47
2019-05-15T08:08:25.344Z,31.50
2019-05-15T08:12:30.769Z,29.07
2019-05-15T08:16:39.405Z,28.00
2019-05-15T08:20:49.049Z,25.90
2019-05-15T08:24:59.148Z,32.43
2019-05-15T08:29:08.466Z,24.73
2019-05-15T08:33:14.409Z,27.07
2019-05-15T08:37:20.442Z,23.03
2019-05-15T08:41:29.438Z,21.27
2019-05-15T08:45:34.503Z,39.30
2019-05-15T08:49:41.104Z,32.87
2019-05-15T08:53:49.720Z,40.83
2019-05-15T08:58:05.810Z,39.23
2019-05-15T09:02:04.970Z,34.27
2019-05-15T09:06:10.909Z,27.00
2019-05-15T09:10:18.395Z,30.17
2019-05-15T09:14:29.298Z,24.20
2019-05-15T09:18:39.059Z,21.10
2019-05-15T09:22:45.336Z,31.70
2019-05-15T09:26:51.750Z,25.10
2019-05-15T09:35:09.084Z,45.70
2019-05-15T09:39:14.895Z,83.87
2019-05-15T09:43:20.944Z,71.83
2019-05-15T09:47:33.930Z,52.57
2019-05-15T09:51:40.069Z,86.20
2019-05-15T09:55:50.034Z,69.23
2019-05-15T09:59:58.717Z,42.00
2019-05-15T10:04:08.336Z,52.63
2019-05-15T10:08:14.088Z,73.17
2019-05-15T10:12:20.340Z,81.40
2019-05-15T10:16:27.001Z,87.53
2019-05-15T10:20:32.816Z,87.03
2019-05-15T10:24:38.986Z,68.10
2019-05-15T10:28:45.307Z,70.30
2019-05-15T10:32:50.754Z,45.07
2019-05-15T10:36:58.901Z,69.50
2019-05-15T10:41:13.943Z,76.00
2019-05-15T10:45:13.456Z,61.70
2019-05-15T10:49:19.101Z,57.73
2019-05-15T10:53:26.009Z,43.77
2019-05-15T10:57:32.897Z,26.90
2019-05-15T11:01:39.645Z,24.03
2019-05-15T11:06:05.934Z,14.53
2019-05-15T11:10:12.773Z,10.90
2019-05-15T11:14:18.526Z,13.70
2019-05-15T11:18:30.480Z,11.77
2019-05-15T11:22:33.223Z,13.63
2019-05-15T11:26:39.933Z,15.90
2019-05-15T11:31:05.772Z,17.27
2019-05-15T11:35:11.446Z,38.27
2019-05-15T11:39:18.243Z,56.33
2019-05-15T11:43:25.349Z,28.20
2019-05-15T11:47:31.041Z,47.47
2019-05-15T11:51:38.393Z,35.37
2019-05-15T11:55:44.560Z,31.00
2019-05-15T11:59:55.323Z,22.00
2019-05-15T12:03:59.140Z,39.20
2019-05-15T12:08:05.318Z,41.63
2019-05-15T12:12:10.756Z,40.40
2019-05-15T12:16:17.307Z,42.53
2019-05-15T12:20:28.590Z,49.77
2019-05-15T12:24:36.886Z,55.47
2019-05-15T12:28:43.179Z,47.60
2019-05-15T12:32:50.556Z,40.60
2019-05-15T12:36:58.195Z,51.20
2019-05-15T13:01:50.070Z,15.73
2019-05-15T13:05:56.940Z,20.73
2019-05-15T13:10:04.642Z,13.00
2019-05-15T13:14:11.390Z,11.47
2019-05-15T13:18:18.019Z,18.67
2019-05-15T13:22:24.876Z,12.53
2019-05-15T13:26:30.946Z,15.80
2019-05-15T13:30:41.034Z,20.60
2019-05-15T13:34:48.546Z,28.30
2019-05-15T13:38:54.199Z,33.77
2019-05-15T13:43:00.298Z,17.83
2019-05-15T13:47:08.685Z,29.23
2019-05-15T13:51:14.771Z,25.10
2019-05-15T13:55:25.514Z,35.13
2019-05-15T13:59:28.834Z,56.03
2019-05-15T14:03:35.113Z,64.17
2019-05-15T14:07:49.183Z,58.13
2019-05-15T14:11:49.655Z,40.70
2019-05-15T14:15:58.238Z,58.27
2019-05-15T14:20:08.719Z,45.90
2019-05-15T14:24:14.298Z,45.57
2019-05-15T14:28:20.216Z,58.23
2019-05-15T14:32:35.560Z,48.53
2019-05-15T14:36:34.703Z,55.30
2019-05-15T14:40:40.988Z,46.07
2019-05-15T14:44:52.234Z,55.77
2019-05-15T14:48:58.613Z,50.37
2019-05-15T14:53:06.271Z,36.13
2019-05-15T14:57:12.491Z,45.03
2019-05-15T15:01:19.099Z,47.37
2019-05-15T15:05:27.231Z,45.37
2019-05-15T15:09:33.112Z,41.47
2019-05-15T15:13:39.155Z,39.67
2019-05-15T15:17:49.079Z,35.40
2019-05-15T15:21:54.339Z,30.17
2019-05-15T15:26:00.719Z,22.03
2019-05-15T15:30:08.834Z,20.47
2019-05-15T15:34:15.755Z,16.03
2019-05-15T15:42:48.950Z,20.03
2019-05-15T15:46:55.211Z,13.43
2019-05-15T15:55:09.637Z,17.07
2019-05-15T15:59:18.203Z,17.97
2019-05-15T16:03:25.106Z,21.37
2019-05-15T16:07:31.628Z,16.40
2019-05-15T16:11:38.645Z,19.37
2019-05-15T16:15:44.485Z,21.17
2019-05-15T16:19:51.167Z,21.27
2019-05-15T16:23:58.257Z,21.37
2019-05-15T16:28:04.910Z,24.97
2019-05-15T16:32:12.595Z,22.63
2019-05-15T16:36:19.092Z,22.87
2019-05-15T16:40:28.642Z,20.60
2019-05-15T16:44:33.916Z,20.67
2019-05-15T16:48:39.618Z,21.30
2019-05-15T16:52:45.922Z,23.00
2019-05-15T16:56:51.476Z,22.67
2019-05-15T17:00:58.556Z,33.50
2019-05-15T17:05:05.551Z,37.13
2019-05-15T17:09:21.181Z,40.73
2019-05-15T17:13:23.779Z,39.40
2019-05-15T17:17:29.016Z,45.20
2019-05-15T17:21:36.656Z,46.83
2019-05-15T17:25:45.355Z,49.47
2019-05-15T17:29:51.681Z,49.37
2019-05-15T17:33:58.175Z,53.43
2019-05-15T17:38:05.364Z,54.27
2019-05-15T17:42:11.029Z,53.13
2019-05-15T17:46:17.254Z,50.30
2019-05-15T17:50:23.416Z,50.23
2019-05-15T17:54:31.852Z,51.77
2019-05-15T17:58:38.151Z,61.17
2019-05-15T18:02:48.600Z,50.60
2019-05-15T18:06:54.884Z,51.00
2019-05-15T18:11:03.456Z,52.97
2019-05-15T18:15:09.446Z,57.23
2019-05-15T18:19:15.103Z,44.67
2019-05-15T18:23:23.492Z,41.10
2019-05-15T18:27:29.102Z,53.40
2019-05-15T18:31:34.824Z,52.13
2019-05-15T18:35:40.612Z,51.80
2019-05-15T18:40:02.234Z,45.27
2019-05-15T18:43:57.866Z,41.73
2019-05-15T18:48:05.268Z,44.90
2019-05-15T18:52:12.239Z,51.77
2019-05-15T18:56:18.741Z,50.43
2019-05-15T19:00:25.806Z,49.00
2019-05-15T19:04:33.055Z,38.43
2019-05-15T19:12:48.858Z,44.50
2019-05-15T19:16:55.290Z,49.57
2019-05-15T19:21:00.957Z,52.73
2019-05-15T19:25:08.885Z,50.90
2019-05-15T19:29:17.901Z,57.03
2019-05-15T19:33:36.454Z,39.03
2019-05-15T19:37:34.528Z,47.50
2019-05-15T19:41:40.752Z,44.57
2019-05-15T19:45:47.726Z,44.97
2019-05-15T19:49:54.711Z,50.53
2019-05-15T19:54:00.163Z,46.53
2019-05-15T19:58:28.562Z,52.50
2019-05-15T20:02:34.427Z,38.10
2019-05-15T20:06:40.204Z,47.13
2019-05-15T20:11:05.361Z,42.60
2019-05-15T20:15:13.903Z,47.77
2019-05-15T20:19:19.533Z,47.90
2019-05-15T20:23:26.255Z,48.33
2019-05-15T20:27:33.500Z,48.57
2019-05-15T20:31:39.873Z,54.47
2019-05-15T20:35:48.357Z,54.63
2019-05-15T20:39:54.059Z,56.63
2019-05-15T20:43:59.526Z,49.60
2019-05-15T20:48:05.817Z,52.40
2019-05-15T20:52:11.480Z,49.10
2019-05-15T20:56:17.042Z,37.10
2019-05-15T21:00:24.384Z,55.67
2019-05-15T21:04:30.571Z,49.97
2019-05-15T21:08:37.921Z,54.00
2019-05-15T21:12:48.600Z,48.67
2019-05-15T21:16:54.943Z,55.83
2019-05-15T21:21:01.233Z,58.37
2019-05-15T21:25:10.861Z,57.90
2019-05-15T21:29:18.544Z,54.27
2019-05-15T21:33:26.207Z,51.13
2019-05-15T21:37:31.851Z,50.23
2019-05-15T21:41:38.737Z,50.53
2019-05-15T21:45:48.817Z,53.77
2019-05-15T21:49:54.625Z,50.60
2019-05-15T21:54:01.279Z,51.73
2019-05-15T21:58:10.912Z,47.00
2019-05-15T22:02:18.201Z,51.13
2019-05-15T22:06:29.042Z,47.77
2019-05-15T22:10:34.217Z,48.90
2019-05-15T22:14:40.284Z,46.37
2019-05-15T22:19:10.651Z,48.10
2019-05-15T22:23:18.333Z,49.90
2019-05-15T22:27:25.890Z,42.03
2019-05-15T22:31:31.637Z,39.90
2019-05-15T22:35:37.739Z,51.53
2019-05-15T22:39:45.286Z,53.10
2019-05-15T22:43:52.656Z,52.13
2019-05-15T22:47:58.701Z,53.43
2019-05-15T22:52:08.394Z,51.43
2019-05-15T22:56:14.137Z,53.50
2019-05-15T23:00:20.477Z,53.00
2019-05-15T23:04:28.674Z,47.87
2019-05-15T23:08:35.180Z,54.20
2019-05-15T23:12:40.894Z,44.97
2019-05-15T23:16:48.283Z,48.60
2019-05-15T23:20:55.555Z,50.87
2019-05-15T23:25:01.353Z,41.97
2019-05-15T23:29:10.381Z,49.23
2019-05-15T23:33:18.844Z,48.13
2019-05-15T23:37:31.503Z,46.40
2019-05-15T23:41:37.178Z,47.93
2019-05-15T23:45:48.616Z,47.23
2019-05-15T23:49:55.100Z,39.93
2019-05-15T23:54:01.365Z,48.80
2019-05-15T23:58:09.573Z,46.60
